Time;durP1;ratioP1;P1;durP2;ratioP2;P2;SDS_P1;SDS_P2;PMS_P1;PMS_P2;Temp;Humidity;BMP_temperature;BMP_pressure;BME280_temperature;BME280_humidity;BME280_pressure;Samples;Min_cycle;Max_cycle;Signal;HPM_P1;HPM_P2
2021/05/22 00:01:31;;;;;;;6.78;6.25;;;10.40;99.90;;;;;;5008755;28;20058;-70
2021/05/22 00:03:58;;;;;;;7.22;6.55;;;10.30;99.90;;;;;;5030510;28;20057;-71
2021/05/22 00:06:24;;;;;;;10.30;6.65;;;10.30;99.90;;;;;;4987963;28;20136;-70
2021/05/22 00:08:51;;;;;;;8.70;6.95;;;10.20;99.90;;;;;;5006001;28;20060;-72
2021/05/22 00:11:19;;;;;;;6.78;6.28;;;10.10;99.90;;;;;;5042009;28;20262;-72
2021/05/22 00:13:45;;;;;;;7.07;5.97;;;10.10;99.90;;;;;;4999991;28;20146;-72
2021/05/22 00:16:12;;;;;;;6.47;5.93;;;10.00;99.90;;;;;;4995556;28;20073;-71
2021/05/22 00:18:39;;;;;;;9.32;5.97;;;9.90;99.90;;;;;;5024225;28;20059;-70
2021/05/22 00:21:06;;;;;;;6.50;6.00;;;9.90;99.90;;;;;;5005389;28;20414;-72
2021/05/22 00:23:33;;;;;;;8.50;6.40;;;9.80;99.90;;;;;;5003573;28;20041;-72
2021/05/22 00:26:00;;;;;;;6.88;6.40;;;9.70;99.90;;;;;;5018714;28;20064;-72
2021/05/22 00:28:26;;;;;;;6.20;5.70;;;9.50;99.90;;;;;;5019345;28;20502;-70
2021/05/22 00:30:53;;;;;;;7.38;5.28;;;9.40;99.90;;;;;;5006616;28;20086;-71
2021/05/22 00:33:20;;;;;;;6.50;5.43;;;9.30;99.90;;;;;;5018691;28;20471;-70
2021/05/22 00:35:47;;;;;;;6.45;5.60;;;9.20;99.90;;;;;;5006109;28;20723;-71
2021/05/22 00:38:14;;;;;;;6.25;5.43;;;9.20;99.90;;;;;;5025871;28;20406;-71
2021/05/22 00:40:41;;;;;;;6.38;5.90;;;9.30;99.90;;;;;;5007298;28;20212;-71
2021/05/22 00:43:07;;;;;;;7.90;5.88;;;9.30;99.90;;;;;;5022947;28;20390;-69
2021/05/22 00:45:35;;;;;;;7.38;6.78;;;9.40;99.90;;;;;;5012053;28;20048;-70
2021/05/22 00:48:03;;;;;;;9.40;6.25;;;9.50;99.90;;;;;;5021358;28;20490;-71
2021/05/22 00:50:35;;;;;;;6.65;5.88;;;9.50;99.90;;;;;;5032570;28;20046;-70
2021/05/22 00:53:05;;;;;;;8.32;6.10;;;9.50;99.90;;;;;;4995786;28;20136;-70
2021/05/22 00:55:33;;;;;;;9.20;6.43;;;9.60;99.90;;;;;;5029564;28;20505;-70
2021/05/22 00:58:01;;;;;;;6.70;6.18;;;9.60;99.90;;;;;;5028317;28;20100;-70
2021/05/22 01:00:48;;;;;;;7.00;6.43;;;9.60;99.90;;;;;;5019753;28;20554;-72
2021/05/22 01:03:26;;;;;;;6.40;5.78;;;9.70;99.90;;;;;;5012867;28;20062;-72
2021/05/22 01:06:07;;;;;;;9.82;6.25;;;9.70;99.90;;;;;;5027755;28;20049;-71
2021/05/22 01:08:37;;;;;;;7.18;5.93;;;9.60;99.90;;;;;;5019805;28;20054;-70
2021/05/22 01:11:28;;;;;;;9.32;6.15;;;9.60;99.90;;;;;;5020878;28;20048;-71
2021/05/22 01:14:02;;;;;;;6.43;5.28;;;9.50;99.90;;;;;;5017966;28;20334;-71
2021/05/22 01:16:29;;;;;;;9.52;5.60;;;9.40;99.90;;;;;;4968198;28;20041;-70
2021/05/22 01:18:58;;;;;;;6.00;5.40;;;9.40;99.90;;;;;;5038708;28;20571;-71
2021/05/22 01:21:25;;;;;;;7.55;5.72;;;9.30;99.90;;;;;;5007512;28;20467;-70
2021/05/22 01:24:14;;;;;;;7.35;6.72;;;9.40;99.90;;;;;;5027582;28;20045;-72
2021/05/22 01:26:42;;;;;;;6.72;5.78;;;9.40;99.90;;;;;;5040392;28;20060;-71
2021/05/22 01:29:10;;;;;;;8.40;6.10;;;9.30;99.90;;;;;;5034172;28;20099;-70
2021/05/22 01:31:37;;;;;;;8.32;6.03;;;9.30;99.90;;;;;;4987201;28;20517;-70
2021/05/22 01:34:09;;;;;;;7.38;5.70;;;9.30;99.90;;;;;;4987710;28;20037;-71
2021/05/22 01:36:36;;;;;;;8.82;5.93;;;9.30;99.90;;;;;;5019700;28;20131;-72
2021/05/22 01:39:03;;;;;;;9.10;5.95;;;9.20;99.90;;;;;;5000370;28;20213;-72
2021/05/22 01:41:31;;;;;;;7.82;5.80;;;9.20;99.90;;;;;;5020713;28;20494;-70
2021/05/22 01:44:00;;;;;;;6.30;5.80;;;9.20;99.90;;;;;;5004045;28;20136;-70
2021/05/22 01:46:29;;;;;;;9.05;6.32;;;9.30;99.90;;;;;;5004812;28;20391;-70
2021/05/22 01:48:58;;;;;;;6.78;6.18;;;9.20;99.90;;;;;;5020648;28;20115;-71
2021/05/22 01:51:25;;;;;;;6.40;5.70;;;9.10;99.90;;;;;;5021806;28;20061;-70
2021/05/22 01:54:10;;;;;;;9.07;7.38;;;9.10;99.90;;;;;;5005510;28;20526;-69
2021/05/22 01:56:38;;;;;;;6.22;5.82;;;9.10;99.90;;;;;;5036388;28;20065;-71
2021/05/22 01:59:04;;;;;;;10.00;6.20;;;9.10;99.90;;;;;;5025954;28;20091;-71
2021/05/22 02:01:32;;;;;;;6.72;5.60;;;9.10;99.90;;;;;;5018862;28;20065;-71
2021/05/22 02:04:04;;;;;;;10.15;5.78;;;9.00;99.90;;;;;;4990091;28;20506;-71
2021/05/22 02:06:41;;;;;;;7.00;5.65;;;8.90;99.90;;;;;;4991670;28;20056;-71
2021/05/22 02:09:11;;;;;;;6.10;5.65;;;8.80;99.90;;;;;;5020076;28;20422;-69
2021/05/22 02:11:40;;;;;;;5.60;5.20;;;8.80;99.90;;;;;;5019709;28;20060;-70
2021/05/22 02:14:08;;;;;;;6.10;5.50;;;8.80;99.90;;;;;;4985888;28;20372;-72
2021/05/22 02:16:46;;;;;;;8.57;5.70;;;8.70;99.90;;;;;;5018716;28;20340;-73
2021/05/22 02:19:17;;;;;;;8.45;5.90;;;8.70;99.90;;;;;;5015615;28;20037;-70
2021/05/22 02:21:45;;;;;;;6.57;4.78;;;8.60;99.90;;;;;;5006438;28;20125;-73
2021/05/22 02:24:19;;;;;;;9.07;5.32;;;8.60;99.90;;;;;;5009076;28;20462;-70
2021/05/22 02:26:46;;;;;;;6.35;5.75;;;8.60;99.90;;;;;;5001415;28;20049;-72
2021/05/22 02:29:21;;;;;;;6.72;4.97;;;8.50;99.90;;;;;;5034641;28;20088;-70
2021/05/22 02:31:49;;;;;;;7.05;5.13;;;8.50;99.90;;;;;;5011629;28;20042;-71
2021/05/22 02:34:20;;;;;;;9.55;4.88;;;8.50;99.90;;;;;;4987563;28;20038;-70
2021/05/22 02:36:48;;;;;;;5.75;5.28;;;8.40;99.90;;;;;;5004528;28;20066;-69
2021/05/22 02:39:15;;;;;;;6.93;5.00;;;8.40;99.90;;;;;;5031629;28;20524;-71
2021/05/22 02:41:45;;;;;;;9.15;5.50;;;8.40;99.90;;;;;;5022186;28;20437;-72
2021/05/22 02:44:14;;;;;;;10.82;5.65;;;8.40;99.90;;;;;;5014281;28;20060;-71
2021/05/22 02:46:46;;;;;;;5.25;4.80;;;8.30;99.90;;;;;;5017960;28;20348;-72
2021/05/22 02:49:17;;;;;;;5.85;4.88;;;8.30;99.90;;;;;;5022536;28;20372;-72
2021/05/22 02:51:48;;;;;;;5.15;4.30;;;8.20;99.90;;;;;;5000774;28;20136;-71
2021/05/22 02:54:19;;;;;;;5.35;4.82;;;8.10;99.90;;;;;;5017990;28;20058;-70
2021/05/22 02:56:46;;;;;;;5.95;4.80;;;8.00;99.90;;;;;;5037044;28;20132;-70
2021/05/22 02:59:14;;;;;;;13.35;4.55;;;8.00;99.90;;;;;;5011969;28;20045;-70
2021/05/22 03:01:42;;;;;;;6.38;4.15;;;7.90;99.90;;;;;;5024123;28;20216;-70
2021/05/22 03:04:09;;;;;;;11.13;4.20;;;7.90;99.90;;;;;;5020459;28;20042;-71
2021/05/22 03:06:35;;;;;;;5.35;3.80;;;7.90;99.90;;;;;;5007088;28;20076;-72
2021/05/22 03:09:03;;;;;;;7.80;4.45;;;7.90;99.90;;;;;;5010341;28;20060;-70
2021/05/22 03:11:30;;;;;;;12.40;4.05;;;7.90;99.90;;;;;;5009621;28;20096;-70
2021/05/22 03:13:57;;;;;;;6.63;3.38;;;7.90;99.90;;;;;;5014070;28;20057;-71
2021/05/22 03:16:24;;;;;;;4.90;3.20;;;7.90;99.90;;;;;;5025079;28;20175;-69
2021/05/22 03:18:51;;;;;;;7.60;3.65;;;7.80;99.90;;;;;;5005272;28;20358;-69
2021/05/22 03:21:17;;;;;;;3.72;3.40;;;7.80;99.90;;;;;;5006149;28;20060;-71
2021/05/22 03:23:44;;;;;;;7.45;3.10;;;7.80;99.90;;;;;;4988541;28;20038;-70
2021/05/22 03:26:11;;;;;;;7.05;3.15;;;7.70;99.90;;;;;;5023336;28;20296;-70
2021/05/22 03:28:38;;;;;;;9.63;3.45;;;7.70;99.90;;;;;;5018941;28;20431;-71
2021/05/22 03:31:08;;;;;;;4.63;3.15;;;7.70;99.90;;;;;;5022799;28;20041;-71
2021/05/22 03:33:35;;;;;;;6.60;2.75;;;7.60;99.90;;;;;;5007139;28;20084;-72
2021/05/22 03:36:02;;;;;;;5.43;2.78;;;7.60;99.90;;;;;;5023898;28;20049;-72
2021/05/22 03:38:29;;;;;;;7.63;2.90;;;7.60;99.90;;;;;;5029074;28;20110;-70
2021/05/22 03:40:56;;;;;;;3.45;2.80;;;7.60;99.90;;;;;;5024324;28;20511;-71
2021/05/22 03:43:23;;;;;;;4.80;3.00;;;7.60;99.90;;;;;;4996933;28;20455;-70
2021/05/22 03:45:50;;;;;;;5.60;2.97;;;7.60;99.90;;;;;;5022695;28;20045;-71
2021/05/22 03:48:16;;;;;;;4.75;2.97;;;7.60;99.90;;;;;;5023633;28;20422;-71
2021/05/22 03:50:43;;;;;;;7.78;2.60;;;7.70;99.90;;;;;;5028864;28;20123;-71
2021/05/22 03:53:10;;;;;;;8.73;3.28;;;7.60;99.90;;;;;;5021786;28;20332;-72
2021/05/22 03:55:37;;;;;;;5.90;2.80;;;7.60;99.90;;;;;;5007239;28;20077;-72
2021/05/22 03:58:04;;;;;;;4.53;2.60;;;7.50;99.90;;;;;;4986098;28;20052;-71
2021/05/22 04:00:31;;;;;;;7.72;2.85;;;7.50;99.90;;;;;;5020582;28;20053;-70
2021/05/22 04:02:59;;;;;;;7.35;3.00;;;7.50;99.90;;;;;;5024559;28;20046;-71
2021/05/22 04:05:26;;;;;;;5.93;3.00;;;7.50;99.90;;;;;;5023716;28;20067;-71
2021/05/22 04:07:53;;;;;;;8.93;2.90;;;7.50;99.90;;;;;;5023064;28;20055;-72
2021/05/22 04:10:19;;;;;;;6.88;2.22;;;7.50;99.90;;;;;;5023985;28;20140;-70
2021/05/22 04:12:46;;;;;;;6.57;3.00;;;7.50;99.90;;;;;;4987334;28;20146;-71
2021/05/22 04:15:13;;;;;;;4.78;3.08;;;7.60;99.90;;;;;;4998025;28;20049;-72
2021/05/22 04:17:40;;;;;;;10.40;3.53;;;7.60;99.90;;;;;;5022736;28;20574;-72
2021/05/22 04:20:07;;;;;;;10.60;3.03;;;7.70;99.90;;;;;;5022343;28;20131;-71
2021/05/22 04:22:34;;;;;;;4.38;2.60;;;7.70;99.90;;;;;;5024113;28;20053;-70
2021/05/22 04:25:01;;;;;;;4.65;3.08;;;7.80;99.90;;;;;;5006040;28;20140;-71
2021/05/22 04:27:28;;;;;;;6.32;3.08;;;7.80;99.90;;;;;;5005084;28;20056;-72
2021/05/22 04:29:55;;;;;;;8.80;3.63;;;7.80;99.90;;;;;;5010511;28;20590;-71
2021/05/22 04:32:21;;;;;;;8.23;3.33;;;7.90;99.90;;;;;;5021993;28;20045;-73
2021/05/22 04:34:49;;;;;;;5.07;3.20;;;7.90;99.90;;;;;;4989088;28;20049;-71
2021/05/22 04:37:15;;;;;;;6.05;3.33;;;8.00;99.90;;;;;;5003806;28;20482;-71
2021/05/22 04:39:42;;;;;;;6.82;4.03;;;8.00;99.90;;;;;;5003287;28;20056;-71
2021/05/22 04:42:09;;;;;;;4.70;3.15;;;8.10;99.90;;;;;;5005319;28;20118;-71
2021/05/22 04:44:36;;;;;;;5.95;3.88;;;8.20;99.90;;;;;;5013921;28;20323;-70
2021/05/22 04:47:04;;;;;;;9.30;5.20;;;8.30;99.90;;;;;;5022260;28;20053;-72
2021/05/22 04:49:31;;;;;;;9.45;5.50;;;8.70;99.90;;;;;;5003927;28;20052;-71
2021/05/22 04:51:58;;;;;;;6.15;5.55;;;8.90;99.90;;;;;;5023451;28;20073;-72
2021/05/22 04:54:25;;;;;;;11.55;6.50;;;9.10;99.90;;;;;;5007317;28;20426;-70
2021/05/22 04:56:52;;;;;;;9.35;6.78;;;9.20;99.90;;;;;;5005132;28;20049;-71
2021/05/22 04:59:19;;;;;;;6.95;6.22;;;9.30;99.90;;;;;;5028127;28;20049;-72
2021/05/22 05:01:46;;;;;;;6.82;6.30;;;9.30;99.90;;;;;;4986751;28;20115;-72
2021/05/22 05:04:12;;;;;;;7.45;6.22;;;9.20;99.90;;;;;;5022388;28;20140;-71
2021/05/22 05:06:39;;;;;;;7.68;6.97;;;9.20;99.90;;;;;;5025736;28;20044;-70
2021/05/22 05:09:06;;;;;;;7.03;6.05;;;9.10;99.90;;;;;;5004719;28;20061;-72
2021/05/22 05:11:33;;;;;;;8.43;7.20;;;9.20;99.90;;;;;;5003551;28;20313;-70
2021/05/22 05:14:00;;;;;;;8.80;7.10;;;9.30;99.90;;;;;;5026649;28;20080;-70
2021/05/22 05:16:28;;;;;;;7.40;6.68;;;9.40;99.90;;;;;;5004876;28;20281;-72
2021/05/22 05:18:55;;;;;;;7.45;6.70;;;9.50;99.90;;;;;;5003703;28;20156;-72
2021/05/22 05:21:22;;;;;;;7.57;6.53;;;9.50;99.90;;;;;;5020496;28;20069;-71
2021/05/22 05:23:49;;;;;;;7.13;6.63;;;9.60;99.90;;;;;;5004703;28;20049;-72
2021/05/22 05:26:16;;;;;;;7.30;6.75;;;9.70;99.90;;;;;;5042683;28;20049;-71
2021/05/22 05:28:42;;;;;;;8.32;7.10;;;9.70;99.90;;;;;;5015447;28;20389;-71
2021/05/22 05:31:10;;;;;;;8.80;8.00;;;9.80;99.90;;;;;;5024304;28;20041;-71
2021/05/22 05:33:37;;;;;;;8.40;7.43;;;9.90;99.90;;;;;;5004644;28;20205;-71
2021/05/22 05:36:04;;;;;;;10.02;7.60;;;10.00;99.90;;;;;;5005234;28;20038;-71
2021/05/22 05:38:32;;;;;;;9.43;7.10;;;10.00;99.90;;;;;;5003060;28;20276;-72
2021/05/22 05:40:59;;;;;;;10.52;7.63;;;10.00;99.90;;;;;;5004791;28;20133;-72
2021/05/22 05:43:26;;;;;;;8.52;7.55;;;10.20;99.90;;;;;;5004339;28;20050;-72
2021/05/22 05:45:53;;;;;;;9.07;7.60;;;10.20;99.90;;;;;;5019772;28;20514;-72
2021/05/22 05:48:20;;;;;;;9.30;8.30;;;10.30;99.90;;;;;;5020259;28;20046;-71
2021/05/22 05:50:47;;;;;;;9.27;7.63;;;10.40;99.90;;;;;;5020579;28;20050;-71
2021/05/22 05:53:13;;;;;;;8.13;7.60;;;10.50;99.90;;;;;;5004997;28;20136;-73
2021/05/22 05:55:40;;;;;;;9.05;8.35;;;10.30;99.90;;;;;;5022113;28;20060;-71
2021/05/22 05:58:07;;;;;;;12.00;9.32;;;10.30;99.90;;;;;;4994798;28;20053;-72
2021/05/22 06:00:34;;;;;;;9.23;8.30;;;10.40;99.90;;;;;;5039727;28;20064;-71
2021/05/22 06:03:00;;;;;;;9.63;8.77;;;10.70;99.90;;;;;;5006586;28;20045;-72
2021/05/22 06:05:27;;;;;;;9.15;8.35;;;10.70;99.90;;;;;;5013582;28;20045;-71
2021/05/22 06:07:54;;;;;;;10.98;8.65;;;10.60;99.90;;;;;;5002940;28;20760;-71
2021/05/22 06:10:21;;;;;;;9.82;8.30;;;10.60;99.90;;;;;;5001237;28;20144;-72
2021/05/22 06:12:48;;;;;;;8.48;7.68;;;10.50;99.90;;;;;;4999132;28;20073;-71
2021/05/22 06:17:43;;;;;;;8.55;7.95;;;10.50;99.90;;;;;;5038418;28;20045;-71
2021/05/22 06:20:10;;;;;;;8.15;7.65;;;10.50;99.90;;;;;;5000872;28;20251;-71
2021/05/22 06:22:38;;;;;;;8.63;7.82;;;10.40;99.90;;;;;;5007250;28;20080;-72
2021/05/22 06:25:05;;;;;;;8.90;7.55;;;10.40;99.90;;;;;;5002732;28;20041;-70
2021/05/22 06:27:32;;;;;;;8.38;7.55;;;10.40;99.90;;;;;;5019913;28;20525;-71
2021/05/22 06:30:07;;;;;;;8.75;7.22;;;10.30;99.90;;;;;;5027418;28;20052;-69
2021/05/22 06:32:34;;;;;;;10.68;8.05;;;10.40;99.90;;;;;;5015910;28;20041;-69
2021/05/22 06:35:01;;;;;;;8.95;7.55;;;10.40;99.90;;;;;;5000419;28;20537;-70
2021/05/22 06:37:28;;;;;;;7.18;6.80;;;10.40;99.90;;;;;;5019829;28;20140;-70
2021/05/22 06:39:55;;;;;;;8.13;7.50;;;10.40;99.90;;;;;;5007616;28;20053;-71
2021/05/22 06:42:22;;;;;;;8.23;7.60;;;10.30;99.90;;;;;;4968274;28;20112;-69
2021/05/22 06:45:02;;;;;;;8.80;7.95;;;10.20;99.90;;;;;;5009173;28;20046;-70
2021/05/22 06:47:29;;;;;;;8.13;7.50;;;10.20;99.90;;;;;;5007878;28;20368;-70
2021/05/22 06:49:55;;;;;;;8.68;7.32;;;10.20;99.90;;;;;;5025986;28;20536;-70
2021/05/22 06:52:22;;;;;;;7.90;7.30;;;10.10;99.90;;;;;;5014415;28;20482;-71
2021/05/22 06:54:50;;;;;;;8.43;7.63;;;10.10;99.90;;;;;;5034433;28;20064;-71
2021/05/22 06:57:17;;;;;;;12.95;7.38;;;10.20;99.90;;;;;;5022905;28;20561;-70
2021/05/22 06:59:44;;;;;;;8.70;7.05;;;10.10;99.90;;;;;;4990443;28;20467;-69
2021/05/22 07:02:10;;;;;;;8.68;7.47;;;10.20;99.90;;;;;;5018380;28;20055;-69
2021/05/22 07:04:37;;;;;;;10.63;7.22;;;10.20;99.90;;;;;;5020694;28;20056;-70
2021/05/22 07:07:05;;;;;;;11.80;8.20;;;10.20;99.90;;;;;;5024226;28;20494;-70
2021/05/22 07:09:32;;;;;;;8.73;8.05;;;10.20;99.90;;;;;;5023813;28;20136;-71
2021/05/22 07:11:59;;;;;;;9.05;8.45;;;10.20;99.90;;;;;;5024877;28;20484;-71
2021/05/22 07:14:27;;;;;;;8.50;6.72;;;10.20;99.90;;;;;;5025347;28;20092;-70
2021/05/22 07:16:57;;;;;;;7.78;7.20;;;10.30;99.90;;;;;;5007236;28;20090;-71
2021/05/22 07:19:26;;;;;;;9.10;8.40;;;10.40;99.90;;;;;;4990945;28;20095;-71
2021/05/22 07:21:54;;;;;;;9.00;7.65;;;10.40;99.90;;;;;;5027904;28;20140;-70
2021/05/22 07:24:22;;;;;;;9.85;8.85;;;10.50;99.90;;;;;;5041760;28;20072;-71
2021/05/22 07:26:50;;;;;;;10.43;8.95;;;10.50;99.90;;;;;;5011960;28;20132;-71
2021/05/22 07:29:17;;;;;;;10.23;9.23;;;10.60;99.90;;;;;;5023532;28;20230;-70
2021/05/22 07:31:45;;;;;;;9.45;8.75;;;10.70;99.90;;;;;;5022618;28;20050;-70
2021/05/22 07:34:12;;;;;;;9.80;8.85;;;10.90;99.90;;;;;;4973859;28;20061;-70
2021/05/22 07:36:40;;;;;;;9.50;8.60;;;11.00;99.90;;;;;;5021384;28;20520;-71
2021/05/22 07:39:12;;;;;;;9.02;8.52;;;11.20;99.90;;;;;;5012273;28;20153;-70
2021/05/22 07:41:45;;;;;;;9.20;8.25;;;11.30;99.90;;;;;;5024868;28;20049;-72
2021/05/22 07:44:12;;;;;;;9.77;8.90;;;11.50;99.90;;;;;;5026847;28;20152;-71
2021/05/22 07:46:39;;;;;;;9.65;8.93;;;11.50;99.90;;;;;;5005552;28;20072;-70
2021/05/22 07:49:06;;;;;;;9.60;8.88;;;11.60;99.90;;;;;;5025343;28;20057;-72
2021/05/22 07:51:33;;;;;;;8.82;8.20;;;11.70;99.90;;;;;;5041550;28;20358;-72
2021/05/22 07:54:00;;;;;;;8.85;8.23;;;11.90;99.90;;;;;;5027386;28;20107;-72
2021/05/22 07:56:28;;;;;;;8.73;8.23;;;11.70;99.90;;;;;;5010815;28;20437;-72
2021/05/22 07:58:54;;;;;;;9.43;8.63;;;11.30;99.90;;;;;;5022912;28;20177;-72
2021/05/22 08:01:21;;;;;;;8.15;7.80;;;11.30;99.90;;;;;;5022136;28;20528;-71
2021/05/22 08:03:48;;;;;;;10.25;7.15;;;11.20;99.90;;;;;;5006941;28;20517;-70
2021/05/22 08:06:15;;;;;;;8.18;7.68;;;10.90;99.90;;;;;;5006718;28;20437;-71
2021/05/22 08:08:44;;;;;;;8.02;7.47;;;10.60;99.90;;;;;;5018920;28;20139;-69
2021/05/22 08:11:12;;;;;;;8.18;7.68;;;10.40;99.90;;;;;;5022785;28;20046;-72
2021/05/22 08:13:39;;;;;;;7.35;6.75;;;10.30;99.90;;;;;;5022108;28;20132;-70
2021/05/22 08:16:06;;;;;;;7.80;7.22;;;10.30;99.90;;;;;;5023096;28;20065;-71
2021/05/22 08:18:33;;;;;;;7.82;7.43;;;10.40;99.90;;;;;;5022168;28;20088;-70
2021/05/22 08:21:00;;;;;;;8.13;7.55;;;10.50;99.90;;;;;;4991135;28;20041;-71
2021/05/22 08:23:27;;;;;;;7.78;7.07;;;10.60;99.90;;;;;;5007370;28;20045;-72
2021/05/22 08:25:54;;;;;;;8.63;7.65;;;10.70;99.90;;;;;;5007630;28;20303;-71
2021/05/22 08:28:41;;;;;;;8.38;7.88;;;10.80;99.90;;;;;;5004469;28;20045;-69
2021/05/22 08:31:08;;;;;;;8.80;8.02;;;10.80;99.90;;;;;;5002949;28;20123;-71
2021/05/22 08:33:34;;;;;;;8.52;7.75;;;10.80;99.90;;;;;;5005530;28;20163;-71
2021/05/22 08:36:01;;;;;;;6.13;5.65;;;10.60;99.90;;;;;;5023615;28;20050;-72
2021/05/22 08:38:28;;;;;;;8.98;4.70;;;10.40;99.90;;;;;;4997119;28;20060;-72
2021/05/22 08:40:56;;;;;;;7.22;6.72;;;10.20;99.90;;;;;;5027766;28;20029;-74
2021/05/22 08:43:23;;;;;;;8.02;7.43;;;10.10;99.90;;;;;;5021470;28;20046;-71
2021/05/22 08:45:50;;;;;;;9.95;9.13;;;10.10;99.90;;;;;;4987048;28;20053;-72
2021/05/22 08:48:18;;;;;;;9.75;8.98;;;10.00;99.90;;;;;;4951185;28;20314;-70
2021/05/22 08:50:44;;;;;;;10.18;9.38;;;10.10;99.90;;;;;;4998493;28;20557;-72
2021/05/22 08:53:11;;;;;;;10.07;9.25;;;10.10;99.90;;;;;;4954007;28;20152;-70
2021/05/22 08:55:39;;;;;;;9.55;9.15;;;10.10;99.90;;;;;;4986107;28;20041;-72
2021/05/22 08:58:06;;;;;;;10.00;9.35;;;10.20;99.90;;;;;;5004250;28;20131;-72
2021/05/22 09:00:39;;;;;;;10.20;9.25;;;10.40;99.90;;;;;;5014218;28;20045;-72
2021/05/22 09:03:07;;;;;;;9.77;9.15;;;10.40;99.90;;;;;;4970401;28;20065;-72
2021/05/22 09:05:34;;;;;;;7.97;7.43;;;10.50;99.90;;;;;;5002824;28;20050;-72
2021/05/22 09:08:06;;;;;;;8.20;7.70;;;10.70;99.90;;;;;;4998651;28;20133;-73
2021/05/22 09:10:35;;;;;;;9.10;8.02;;;10.90;99.90;;;;;;5000972;28;20413;-73
2021/05/22 09:13:11;;;;;;;9.27;8.70;;;11.00;99.90;;;;;;5002750;28;20339;-72
2021/05/22 09:15:42;;;;;;;9.82;9.23;;;11.10;99.90;;;;;;4984930;28;20555;-72
2021/05/22 09:18:17;;;;;;;8.35;7.80;;;11.20;99.90;;;;;;5003352;28;20414;-72
2021/05/22 09:20:50;;;;;;;9.65;8.75;;;11.40;99.90;;;;;;4979377;28;20058;-71
2021/05/22 09:23:19;;;;;;;9.85;8.75;;;11.40;99.90;;;;;;4983138;28;20069;-71
2021/05/22 09:25:49;;;;;;;8.60;8.10;;;11.40;99.90;;;;;;4999844;28;20049;-70
2021/05/22 09:28:19;;;;;;;9.80;9.25;;;11.40;99.90;;;;;;5003376;28;20058;-70
2021/05/22 09:30:49;;;;;;;9.68;8.98;;;11.30;99.90;;;;;;5013791;28;20080;-72
2021/05/22 09:33:18;;;;;;;8.02;7.53;;;11.40;99.90;;;;;;5010645;28;20052;-71
2021/05/22 09:35:57;;;;;;;8.50;7.97;;;11.30;99.90;;;;;;4969494;28;20054;-73
2021/05/22 09:38:34;;;;;;;8.45;7.80;;;10.90;99.90;;;;;;5007063;28;20059;-73
2021/05/22 09:41:14;;;;;;;7.82;7.30;;;10.70;99.90;;;;;;4984895;28;20136;-72
2021/05/22 09:43:41;;;;;;;8.45;7.85;;;10.70;99.90;;;;;;4968874;28;20820;-72
2021/05/22 09:46:10;;;;;;;7.50;7.03;;;10.60;99.90;;;;;;5001455;28;20104;-73
2021/05/22 09:48:37;;;;;;;6.97;6.47;;;10.60;99.90;;;;;;4985675;28;20064;-72
2021/05/22 09:51:05;;;;;;;7.97;7.28;;;10.60;99.90;;;;;;4980693;28;20042;-73
2021/05/22 09:53:37;;;;;;;7.50;7.10;;;10.60;99.90;;;;;;4966205;28;20137;-72
2021/05/22 09:56:17;;;;;;;7.15;6.85;;;10.50;99.90;;;;;;5009719;28;20054;-73
2021/05/22 09:58:51;;;;;;;7.55;7.18;;;10.40;99.90;;;;;;5003518;28;20124;-74
2021/05/22 10:01:19;;;;;;;6.85;4.75;;;10.40;99.90;;;;;;4994770;28;20068;-72
2021/05/22 10:03:47;;;;;;;3.95;3.70;;;10.50;99.90;;;;;;4993220;28;20038;-73
2021/05/22 10:06:14;;;;;;;3.72;3.42;;;10.50;99.90;;;;;;5000445;28;20134;-72
2021/05/22 10:08:42;;;;;;;3.20;2.97;;;10.60;99.90;;;;;;5001102;28;20077;-71
2021/05/22 10:11:09;;;;;;;4.10;3.17;;;10.60;99.90;;;;;;4988067;28;20149;-73
2021/05/22 10:13:36;;;;;;;2.88;2.72;;;10.60;99.90;;;;;;4982514;28;20207;-72
2021/05/22 10:16:06;;;;;;;3.95;3.42;;;10.50;99.90;;;;;;5004635;28;20123;-74
2021/05/22 10:18:33;;;;;;;4.25;3.25;;;10.40;99.90;;;;;;4963242;28;20141;-72
2021/05/22 10:21:03;;;;;;;3.90;3.03;;;10.40;99.90;;;;;;4976806;28;20234;-72
2021/05/22 10:23:31;;;;;;;3.60;3.17;;;10.40;99.90;;;;;;4984484;28;20056;-73
2021/05/22 10:25:59;;;;;;;3.88;3.30;;;10.40;99.90;;;;;;4999783;28;20128;-74
2021/05/22 10:28:27;;;;;;;3.10;2.78;;;10.30;99.90;;;;;;4984978;28;20142;-73
2021/05/22 10:30:55;;;;;;;2.72;2.53;;;10.30;99.90;;;;;;4966112;28;20145;-72
2021/05/22 10:33:23;;;;;;;3.83;2.80;;;10.30;99.90;;;;;;4995339;28;20112;-71
2021/05/22 10:35:54;;;;;;;2.70;2.60;;;10.30;99.90;;;;;;4982974;28;20050;-73
2021/05/22 10:38:33;;;;;;;2.50;2.40;;;10.30;99.90;;;;;;5001979;28;20528;-73
2021/05/22 10:41:01;;;;;;;3.42;3.22;;;10.30;99.90;;;;;;4994459;28;20517;-72
2021/05/22 10:43:53;;;;;;;3.80;3.55;;;10.20;99.90;;;;;;5013439;28;20416;-73
2021/05/22 10:46:21;;;;;;;2.90;2.78;;;10.10;99.90;;;;;;5022546;28;20136;-71
2021/05/22 10:48:51;;;;;;;3.50;3.30;;;10.10;99.90;;;;;;5005645;28;20061;-72
2021/05/22 10:51:25;;;;;;;2.72;2.53;;;10.00;99.90;;;;;;5034807;28;20045;-72
2021/05/22 10:53:57;;;;;;;2.92;2.70;;;10.00;99.90;;;;;;5012409;28;20364;-72
2021/05/22 10:56:26;;;;;;;2.40;2.30;;;10.00;99.90;;;;;;5004164;28;20259;-72
2021/05/22 10:58:59;;;;;;;5.78;2.70;;;10.00;99.90;;;;;;4984302;28;20465;-72
2021/05/22 11:01:26;;;;;;;3.03;2.40;;;10.00;99.90;;;;;;5016404;28;20095;-72
2021/05/22 11:04:24;;;;;;;3.33;3.13;;;10.00;99.90;;;;;;5004881;28;20049;-72
2021/05/22 11:06:54;;;;;;;3.55;3.42;;;10.10;99.90;;;;;;5001664;28;20207;-72
2021/05/22 11:09:27;;;;;;;3.33;3.17;;;10.10;99.90;;;;;;5021732;28;20090;-72
2021/05/22 11:11:59;;;;;;;4.18;3.88;;;10.10;99.90;;;;;;5007004;28;20095;-72
2021/05/22 11:14:34;;;;;;;4.22;3.92;;;10.20;99.90;;;;;;5005628;28;20050;-72
2021/05/22 11:17:21;;;;;;;4.30;3.90;;;10.20;99.90;;;;;;4965839;28;20103;-72
2021/05/22 11:20:12;;;;;;;3.47;3.35;;;10.30;99.90;;;;;;5022512;28;20486;-72
2021/05/22 11:22:42;;;;;;;3.53;2.80;;;10.40;99.90;;;;;;4996424;28;20136;-71
2021/05/22 11:25:10;;;;;;;3.63;3.40;;;10.40;99.90;;;;;;4993991;28;20042;-71
2021/05/22 11:27:47;;;;;;;3.05;2.88;;;10.40;99.90;;;;;;4996268;28;20045;-73
2021/05/22 11:30:15;;;;;;;3.38;3.05;;;10.40;99.90;;;;;;5019678;28;20055;-74
2021/05/22 11:32:47;;;;;;;2.95;2.85;;;10.30;99.90;;;;;;5023164;28;20033;-72
2021/05/22 11:35:26;;;;;;;2.88;2.78;;;10.30;99.90;;;;;;5007595;28;20329;-72
2021/05/22 11:37:54;;;;;;;4.00;3.60;;;10.30;99.90;;;;;;5000065;28;20418;-73
2021/05/22 11:40:39;;;;;;;4.07;3.88;;;10.30;99.90;;;;;;5027381;28;20054;-71
2021/05/22 11:43:15;;;;;;;2.95;2.75;;;10.30;99.90;;;;;;5003425;28;20049;-72
2021/05/22 11:45:43;;;;;;;2.25;2.15;;;10.30;99.90;;;;;;5003701;28;20050;-73
2021/05/22 11:48:33;;;;;;;3.03;2.72;;;10.30;99.90;;;;;;4995174;28;20509;-73
2021/05/22 11:51:17;;;;;;;3.90;3.70;;;10.30;99.90;;;;;;5000067;28;20427;-73
2021/05/22 11:54:07;;;;;;;3.08;2.22;;;10.20;99.90;;;;;;4986199;28;20053;-73
2021/05/22 11:56:36;;;;;;;2.60;2.42;;;10.20;99.90;;;;;;5003026;28;20245;-72
2021/05/22 11:59:05;;;;;;;3.25;2.92;;;10.20;99.90;;;;;;4971648;28;20050;-72
2021/05/22 12:01:38;;;;;;;3.03;2.83;;;10.20;99.90;;;;;;5003063;28;20131;-73
2021/05/22 12:04:07;;;;;;;4.03;2.45;;;10.10;99.90;;;;;;4986360;28;20046;-73
2021/05/22 12:06:47;;;;;;;3.30;3.10;;;10.10;99.90;;;;;;5002614;28;20056;-73
2021/05/22 12:09:22;;;;;;;2.90;2.67;;;10.10;99.90;;;;;;4986888;28;20314;-72
2021/05/22 12:12:02;;;;;;;3.95;2.70;;;10.10;99.90;;;;;;5004154;28;20137;-73
2021/05/22 12:14:44;;;;;;;7.03;3.33;;;10.10;99.90;;;;;;5004051;28;20053;-72
2021/05/22 12:17:15;;;;;;;3.00;2.53;;;10.10;99.90;;;;;;5006612;28;20214;-73
2021/05/22 12:19:45;;;;;;;13.20;5.38;;;10.20;99.90;;;;;;5006513;28;20087;-71
2021/05/22 12:22:17;;;;;;;3.25;2.28;;;10.20;99.90;;;;;;4992261;28;20716;-73
2021/05/22 12:24:44;;;;;;;1.70;1.63;;;10.20;99.90;;;;;;5001743;28;20050;-73
2021/05/22 12:27:15;;;;;;;2.05;1.75;;;10.20;99.90;;;;;;5001954;28;20231;-73
2021/05/22 12:29:51;;;;;;;2.40;1.67;;;10.20;99.90;;;;;;4986448;28;20050;-71
2021/05/22 12:32:19;;;;;;;1.80;1.70;;;10.20;99.90;;;;;;5002803;28;20210;-72
2021/05/22 12:34:46;;;;;;;1.45;1.20;;;10.10;99.90;;;;;;4987292;28;20133;-73
2021/05/22 12:37:21;;;;;;;1.70;1.60;;;10.10;99.90;;;;;;4987310;28;20145;-73
2021/05/22 12:39:56;;;;;;;;;;;10.10;99.90;;;;;;4986211;28;20093;-72
2021/05/22 12:42:27;;;;;;;1.88;1.77;;;10.00;99.90;;;;;;4998868;28;20600;-72
2021/05/22 12:45:15;;;;;;;1.65;1.48;;;10.10;99.90;;;;;;5015856;28;20875;-73
2021/05/22 12:47:52;;;;;;;2.75;1.38;;;10.10;99.90;;;;;;4990105;28;20048;-73
2021/05/22 12:50:31;;;;;;;2.83;1.48;;;10.00;99.90;;;;;;5023927;28;20061;-72
2021/05/22 12:53:06;;;;;;;5.05;1.85;;;10.10;99.90;;;;;;5023039;28;20144;-71
2021/05/22 12:55:36;;;;;;;2.63;1.60;;;10.10;99.90;;;;;;5022069;28;20046;-71
2021/05/22 12:58:08;;;;;;;2.28;1.80;;;10.10;99.90;;;;;;4993635;28;20052;-70
2021/05/22 13:00:35;;;;;;;2.13;1.50;;;10.10;99.90;;;;;;4987228;28;20045;-73
2021/05/22 13:03:05;;;;;;;3.75;1.98;;;10.10;99.90;;;;;;5019629;28;20095;-72
2021/05/22 13:05:36;;;;;;;2.22;1.73;;;10.10;99.90;;;;;;5014527;28;20073;-72